aviador You're here:

UKOO Decoded Metar

ODESSA in UKRAINE
Report Time2018-02-18 17:30:00
UTC Time2018-02-18 17:50:47
Flight Rules vfr VFR
WindCalm
Visibility9999 m
Phenomena:N/A
Clouds:N/A
Expected CloudBase > 1,600 ft AGL from Temp-Dew spread
CeilingNone
Temp01°C (ISA -14)
Dew Point-3°C (75% RH)
AAT-1.4°C
QNH1023 hPa
Density Alt-1,837 ft
Elevation115 ft
Report Wrong Elevation
Raw Report
UKOO 181730Z 00000MPS CAVOK 01/M03 Q1023 R16/090060 NOSIG=

Extra information for UKOO:More info

Metar Taf Metar & Taf Last 4 Metars F.Rules Stats Wind Profile Meteogram Temp Stats Airport Information Weather charts Add Link Nearby VenuesMetar ALERT Operation Metar Decoded Social comments